Time;durP1;ratioP1;P1;durP2;ratioP2;P2;SDS_P1;SDS_P2;PMS_P1;PMS_P2;Temp;Humidity;BMP_temperature;BMP_pressure;BME280_temperature;BME280_humidity;BME280_pressure;Samples;Min_cycle;Max_cycle;Signal;HPM_P1;HPM_P2
2021/07/08 00:00:39;;;;;;;1.90;1.80;;;18.20;99.90;;;;;;5044872;28;20281;-71
2021/07/08 00:03:04;;;;;;;2.10;2.00;;;18.20;99.90;;;;;;5053487;28;20410;-72
2021/07/08 00:05:32;;;;;;;2.27;1.73;;;18.20;99.90;;;;;;5053359;28;20482;-71
2021/07/08 00:07:59;;;;;;;1.40;1.30;;;18.20;99.90;;;;;;5050959;28;20171;-71
2021/07/08 00:10:37;;;;;;;2.10;1.90;;;18.20;99.90;;;;;;5033474;28;20438;-71
2021/07/08 00:13:04;;;;;;;2.40;2.20;;;18.20;99.90;;;;;;5033637;28;20799;-71
2021/07/08 00:15:30;;;;;;;2.00;1.90;;;18.10;99.90;;;;;;5033540;28;20410;-71
2021/07/08 00:17:57;;;;;;;1.80;1.70;;;18.10;99.90;;;;;;5033695;28;20936;-71
2021/07/08 00:20:25;;;;;;;2.27;1.60;;;18.10;99.90;;;;;;5053003;28;20926;-71
2021/07/08 00:22:50;;;;;;;2.33;1.70;;;18.10;99.90;;;;;;5053029;28;20934;-71
2021/07/08 00:25:24;;;;;;;1.80;1.70;;;18.10;99.90;;;;;;5053162;28;20453;-71
2021/07/08 00:27:50;;;;;;;2.27;2.10;;;18.00;99.90;;;;;;5052317;28;20190;-70
2021/07/08 00:30:16;;;;;;;1.83;1.73;;;18.00;99.90;;;;;;5033331;28;20431;-71
2021/07/08 00:32:42;;;;;;;1.63;1.63;;;18.00;99.90;;;;;;5033329;28;20911;-71
2021/07/08 00:35:09;;;;;;;3.00;1.77;;;18.00;99.90;;;;;;5033141;28;20493;-71
2021/07/08 00:37:35;;;;;;;1.70;1.60;;;18.00;99.90;;;;;;5032726;28;20416;-71
2021/07/08 00:40:00;;;;;;;2.40;2.13;;;18.00;99.90;;;;;;5050610;28;20790;-71
2021/07/08 00:42:26;;;;;;;2.10;1.83;;;18.00;99.90;;;;;;5053034;28;20176;-71
2021/07/08 00:44:52;;;;;;;2.00;1.90;;;17.90;99.90;;;;;;5053000;28;20794;-71
2021/07/08 00:47:18;;;;;;;1.40;1.30;;;17.90;99.90;;;;;;5043591;28;20182;-71
2021/07/08 00:49:43;;;;;;;1.60;1.60;;;18.00;99.90;;;;;;5031644;28;20221;-71
2021/07/08 00:52:09;;;;;;;1.97;1.83;;;17.90;99.90;;;;;;5032929;28;20257;-71
2021/07/08 00:54:34;;;;;;;2.10;2.00;;;17.90;99.90;;;;;;5033195;28;20630;-71
2021/07/08 00:57:03;;;;;;;1.50;1.40;;;17.90;99.90;;;;;;5038731;28;20189;-72
2021/07/08 00:59:29;;;;;;;3.00;2.17;;;17.80;99.90;;;;;;5052620;28;20221;-71
2021/07/08 01:01:57;;;;;;;1.60;1.47;;;17.70;99.90;;;;;;5052914;28;20400;-71
2021/07/08 01:04:23;;;;;;;1.43;1.37;;;17.60;99.90;;;;;;5054940;28;20225;-71
2021/07/08 01:06:49;;;;;;;2.17;1.97;;;17.60;99.90;;;;;;5052426;28;20475;-72
2021/07/08 01:09:15;;;;;;;2.30;2.10;;;17.60;99.90;;;;;;5036059;28;20463;-71
2021/07/08 01:11:42;;;;;;;2.47;2.27;;;17.60;99.90;;;;;;5036614;28;20428;-71
2021/07/08 01:14:08;;;;;;;1.97;1.87;;;17.60;99.90;;;;;;5036656;28;20412;-72
2021/07/08 01:16:35;;;;;;;2.27;2.07;;;17.50;99.90;;;;;;5036662;28;20508;-71
2021/07/08 01:19:03;;;;;;;2.17;2.07;;;17.50;99.90;;;;;;5035959;28;20430;-71
2021/07/08 01:21:31;;;;;;;2.40;2.20;;;17.50;99.90;;;;;;5036338;28;20405;-71
2021/07/08 01:23:59;;;;;;;2.97;2.67;;;17.50;99.90;;;;;;5036439;28;20453;-72
2021/07/08 01:26:25;;;;;;;2.20;2.00;;;17.40;99.90;;;;;;5049075;28;20482;-72
2021/07/08 01:28:52;;;;;;;2.77;2.60;;;17.40;99.90;;;;;;5055673;28;20455;-72
2021/07/08 01:31:19;;;;;;;2.93;2.67;;;17.40;99.90;;;;;;5056085;28;20397;-71
2021/07/08 01:33:46;;;;;;;2.13;2.03;;;17.30;99.90;;;;;;5056142;28;20498;-72
2021/07/08 01:36:12;;;;;;;2.30;2.10;;;17.30;99.90;;;;;;5048694;28;20412;-71
2021/07/08 01:38:37;;;;;;;2.07;1.97;;;17.40;99.90;;;;;;5055672;28;20479;-72
2021/07/08 01:41:04;;;;;;;2.30;2.10;;;17.30;99.90;;;;;;5056022;28;20479;-71
2021/07/08 01:43:38;;;;;;;2.20;2.00;;;17.30;99.90;;;;;;5055947;28;20162;-72
2021/07/08 01:46:05;;;;;;;2.33;2.23;;;17.30;99.90;;;;;;5053505;28;20400;-72
2021/07/08 01:48:31;;;;;;;1.63;1.53;;;17.40;99.90;;;;;;5035275;28;20448;-71
2021/07/08 01:50:58;;;;;;;1.60;1.50;;;17.30;99.90;;;;;;5038056;28;20431;-71
2021/07/08 01:53:24;;;;;;;2.60;2.40;;;17.30;99.90;;;;;;5055613;28;20404;-71
2021/07/08 01:55:49;;;;;;;2.57;2.07;;;17.30;99.90;;;;;;5053945;28;20934;-71
2021/07/08 01:58:15;;;;;;;2.57;2.47;;;17.30;99.90;;;;;;5055121;28;20239;-71
2021/07/08 02:00:41;;;;;;;1.53;1.37;;;17.30;99.90;;;;;;5055516;28;20189;-70
2021/07/08 02:03:06;;;;;;;3.40;2.23;;;17.30;99.90;;;;;;5036220;28;20189;-70
2021/07/08 02:05:32;;;;;;;2.40;2.20;;;17.30;99.90;;;;;;5035760;28;20202;-70
2021/07/08 02:07:57;;;;;;;2.13;2.03;;;17.30;99.90;;;;;;5033990;28;20245;-70
2021/07/08 02:10:23;;;;;;;1.97;1.87;;;17.30;99.90;;;;;;5035620;28;20193;-69
2021/07/08 02:12:49;;;;;;;2.37;2.10;;;17.30;99.90;;;;;;5051515;28;20209;-69
2021/07/08 02:15:15;;;;;;;2.40;2.30;;;17.30;99.90;;;;;;5054628;28;20174;-69
2021/07/08 02:17:41;;;;;;;1.93;1.70;;;17.20;99.90;;;;;;5054903;28;20408;-69
2021/07/08 02:20:10;;;;;;;2.33;1.80;;;17.10;99.90;;;;;;5055327;28;20303;-69
2021/07/08 02:22:36;;;;;;;2.30;2.00;;;17.10;99.90;;;;;;5053918;28;20477;-69
2021/07/08 02:25:04;;;;;;;2.87;1.87;;;17.20;99.90;;;;;;5055002;28;20452;-68
2021/07/08 02:27:30;;;;;;;2.40;2.30;;;17.30;99.90;;;;;;5054936;28;20451;-69
2021/07/08 02:29:55;;;;;;;1.90;1.80;;;17.30;99.90;;;;;;5053627;28;20467;-69
2021/07/08 02:32:21;;;;;;;2.20;2.03;;;17.30;99.90;;;;;;5043435;28;20182;-69
2021/07/08 02:34:49;;;;;;;2.40;2.20;;;17.30;99.90;;;;;;5034987;28;20182;-69
2021/07/08 02:37:16;;;;;;;3.40;3.10;;;17.20;99.90;;;;;;5033414;28;20185;-69
2021/07/08 02:39:42;;;;;;;6.93;2.23;;;17.20;99.90;;;;;;5034995;28;20428;-69
2021/07/08 02:42:07;;;;;;;2.23;2.13;;;17.20;99.90;;;;;;5043968;28;20451;-69
2021/07/08 02:44:33;;;;;;;2.60;2.20;;;17.20;99.90;;;;;;5054322;28;20995;-68
2021/07/08 02:47:01;;;;;;;3.60;2.43;;;17.20;99.90;;;;;;5055053;28;20184;-69
2021/07/08 02:49:27;;;;;;;4.50;2.87;;;17.20;99.90;;;;;;5054483;28;20424;-70
2021/07/08 02:51:53;;;;;;;2.37;2.17;;;17.20;99.90;;;;;;5049173;28;20421;-69
2021/07/08 02:54:19;;;;;;;3.10;2.10;;;17.20;99.90;;;;;;5034828;28;20832;-69
2021/07/08 02:56:45;;;;;;;2.97;2.77;;;17.20;99.90;;;;;;5034399;28;20545;-69
2021/07/08 02:59:10;;;;;;;2.93;2.60;;;17.30;99.90;;;;;;5034228;28;20198;-69
2021/07/08 03:01:36;;;;;;;3.03;2.70;;;17.30;99.90;;;;;;5046685;28;20225;-69
2021/07/08 03:04:02;;;;;;;2.10;2.00;;;17.30;99.90;;;;;;5054434;28;20193;-69
2021/07/08 03:06:28;;;;;;;2.40;2.13;;;17.30;99.90;;;;;;5054368;28;20189;-69
2021/07/08 03:08:53;;;;;;;2.30;2.20;;;17.30;99.90;;;;;;5053667;28;20432;-69
2021/07/08 03:11:20;;;;;;;2.43;2.23;;;17.30;99.90;;;;;;5045059;28;20215;-69
2021/07/08 03:13:46;;;;;;;2.60;2.40;;;17.20;99.90;;;;;;5034856;28;20216;-69
2021/07/08 03:16:11;;;;;;;2.83;2.20;;;17.20;99.90;;;;;;5038166;28;20420;-69
2021/07/08 03:18:37;;;;;;;5.40;2.40;;;17.30;99.90;;;;;;5053781;28;20621;-69
2021/07/08 03:21:03;;;;;;;2.43;2.23;;;17.20;99.90;;;;;;5052983;28;20174;-69
2021/07/08 03:23:28;;;;;;;2.40;2.20;;;17.20;99.90;;;;;;5054135;28;20565;-69
2021/07/08 03:25:54;;;;;;;3.80;2.90;;;17.20;99.90;;;;;;5053560;28;20276;-69
2021/07/08 03:28:20;;;;;;;2.40;2.20;;;17.20;99.90;;;;;;5033054;28;20570;-69
2021/07/08 03:30:45;;;;;;;2.83;2.63;;;17.20;99.90;;;;;;5033992;28;20196;-68
2021/07/08 03:33:11;;;;;;;8.03;3.23;;;17.10;99.90;;;;;;5034081;28;20524;-69
2021/07/08 03:35:37;;;;;;;2.50;2.30;;;17.10;99.90;;;;;;5043525;28;20227;-69
2021/07/08 03:38:03;;;;;;;2.80;2.60;;;17.10;99.90;;;;;;5053467;28;20226;-69
2021/07/08 03:40:29;;;;;;;2.50;2.30;;;17.10;99.90;;;;;;5053675;28;20271;-69
2021/07/08 03:42:55;;;;;;;3.07;2.80;;;17.10;99.90;;;;;;5053824;28;20458;-68
2021/07/08 03:45:23;;;;;;;4.07;2.80;;;17.10;99.90;;;;;;5045639;28;20472;-69
2021/07/08 03:47:49;;;;;;;3.00;2.80;;;17.10;99.90;;;;;;5033398;28;20780;-69
2021/07/08 03:50:15;;;;;;;2.87;2.47;;;17.10;99.90;;;;;;5033614;28;20428;-69
2021/07/08 03:52:42;;;;;;;2.30;2.10;;;17.10;99.90;;;;;;5033680;28;20379;-69
2021/07/08 03:55:10;;;;;;;2.93;2.60;;;17.10;99.90;;;;;;5051094;28;20419;-69
2021/07/08 03:57:36;;;;;;;4.57;3.37;;;17.00;99.90;;;;;;5053109;28;20428;-69
2021/07/08 04:00:05;;;;;;;2.83;2.63;;;17.00;99.90;;;;;;5053413;28;20481;-70
2021/07/08 04:02:33;;;;;;;6.97;3.07;;;16.90;99.90;;;;;;5053600;28;20470;-70
2021/07/08 04:04:59;;;;;;;5.13;4.03;;;16.90;99.90;;;;;;5036738;28;20457;-70
2021/07/08 04:07:24;;;;;;;4.40;3.50;;;16.90;99.90;;;;;;5032996;28;20413;-69
2021/07/08 04:09:50;;;;;;;3.53;3.23;;;16.90;99.90;;;;;;5033355;28;20194;-69
2021/07/08 04:12:16;;;;;;;3.47;3.17;;;16.80;99.90;;;;;;5033665;28;20177;-70
2021/07/08 04:14:41;;;;;;;4.83;2.87;;;16.80;99.90;;;;;;5046840;28;20233;-70
2021/07/08 04:17:07;;;;;;;3.87;3.57;;;16.80;99.90;;;;;;5051783;28;20272;-69
2021/07/08 04:19:32;;;;;;;3.00;2.80;;;16.80;99.90;;;;;;5053300;28;20190;-69
2021/07/08 04:21:58;;;;;;;3.00;2.70;;;16.90;99.90;;;;;;5053289;28;20710;-69
2021/07/08 04:24:24;;;;;;;3.40;3.10;;;16.90;99.90;;;;;;5042088;28;20564;-69
2021/07/08 04:26:49;;;;;;;3.40;2.83;;;16.80;99.90;;;;;;5033231;28;20509;-69
2021/07/08 04:29:15;;;;;;;3.17;2.90;;;16.90;99.90;;;;;;5032722;28;20217;-70
2021/07/08 04:31:40;;;;;;;3.90;2.70;;;16.90;99.90;;;;;;5033201;28;20181;-69
2021/07/08 04:34:06;;;;;;;2.83;2.57;;;16.80;99.90;;;;;;5041366;28;20635;-69
2021/07/08 04:36:32;;;;;;;3.10;2.90;;;16.90;99.90;;;;;;5051658;28;20178;-69
2021/07/08 04:38:58;;;;;;;3.57;3.17;;;16.90;99.90;;;;;;5053979;28;20201;-69
2021/07/08 04:41:24;;;;;;;3.53;3.23;;;16.90;99.90;;;;;;5057325;28;20758;-69
2021/07/08 04:43:49;;;;;;;2.67;2.50;;;17.00;99.90;;;;;;5050951;28;20541;-68
2021/07/08 04:46:15;;;;;;;3.37;3.17;;;16.90;99.90;;;;;;5037123;28;20174;-70
2021/07/08 04:48:42;;;;;;;3.37;3.17;;;17.00;99.90;;;;;;5036584;28;20177;-69
2021/07/08 04:51:08;;;;;;;3.33;2.87;;;17.00;99.90;;;;;;5036777;28;20775;-69
2021/07/08 04:53:34;;;;;;;4.07;3.20;;;17.00;99.90;;;;;;5037202;28;20432;-67
2021/07/08 04:55:59;;;;;;;4.23;3.83;;;17.10;99.90;;;;;;5036831;28;20449;-68
2021/07/08 04:58:27;;;;;;;3.97;3.60;;;17.10;99.90;;;;;;5036368;28;20194;-67
2021/07/08 05:00:52;;;;;;;3.90;3.03;;;17.10;99.90;;;;;;5035287;28;20261;-68
2021/07/08 05:03:18;;;;;;;3.80;2.97;;;17.10;99.90;;;;;;5050056;28;20419;-68
2021/07/08 05:05:43;;;;;;;3.43;3.17;;;17.20;99.90;;;;;;5056540;28;20220;-68
2021/07/08 05:08:09;;;;;;;2.90;2.70;;;17.20;99.90;;;;;;5056266;28;20269;-71
2021/07/08 05:10:35;;;;;;;3.73;3.43;;;17.30;99.90;;;;;;5056412;28;20552;-69
2021/07/08 05:13:00;;;;;;;3.70;3.07;;;17.30;99.90;;;;;;5046436;28;20190;-68
2021/07/08 05:15:26;;;;;;;3.70;3.17;;;17.30;99.90;;;;;;5036298;28;20578;-69
2021/07/08 05:17:52;;;;;;;3.67;2.80;;;17.30;99.90;;;;;;5036005;28;20172;-68
2021/07/08 05:20:18;;;;;;;4.30;2.70;;;17.40;99.90;;;;;;5036411;28;20554;-69
2021/07/08 05:22:47;;;;;;;3.70;3.40;;;17.40;99.90;;;;;;5055092;28;20502;-68
2021/07/08 05:25:15;;;;;;;4.57;3.07;;;17.50;99.90;;;;;;5056347;28;20469;-68
2021/07/08 05:27:41;;;;;;;3.30;3.00;;;17.50;99.90;;;;;;5055850;28;20459;-69
2021/07/08 05:30:08;;;;;;;6.83;2.73;;;17.60;99.90;;;;;;5056229;28;20510;-71
2021/07/08 05:32:34;;;;;;;3.20;2.97;;;17.70;99.90;;;;;;5037927;28;20791;-71
2021/07/08 05:35:00;;;;;;;3.50;3.20;;;17.80;99.90;;;;;;5036562;28;20427;-66
2021/07/08 05:37:26;;;;;;;3.33;3.03;;;17.80;99.90;;;;;;5035736;28;20415;-68
2021/07/08 05:39:52;;;;;;;3.70;3.37;;;17.80;99.90;;;;;;5043043;28;20198;-69
2021/07/08 05:42:17;;;;;;;4.23;3.17;;;17.80;99.90;;;;;;5054490;28;20280;-67
2021/07/08 05:44:43;;;;;;;4.27;3.37;;;17.80;99.90;;;;;;5054382;28;20196;-65
2021/07/08 05:47:09;;;;;;;3.10;2.80;;;17.90;99.90;;;;;;5041690;28;20584;-68
2021/07/08 05:49:35;;;;;;;3.20;3.00;;;18.00;99.90;;;;;;5039302;28;20499;-68
2021/07/08 05:52:01;;;;;;;2.97;2.77;;;18.10;99.90;;;;;;5035062;28;20205;-69
2021/07/08 05:54:26;;;;;;;5.13;2.80;;;18.10;99.90;;;;;;5035775;28;20190;-67
2021/07/08 05:56:52;;;;;;;2.67;2.43;;;18.20;99.90;;;;;;5045151;28;20190;-68
2021/07/08 05:59:17;;;;;;;3.10;2.83;;;18.20;99.90;;;;;;5055301;28;20200;-69
2021/07/08 06:01:43;;;;;;;3.13;2.83;;;18.30;99.90;;;;;;5055606;28;20229;-69
2021/07/08 06:04:09;;;;;;;3.40;2.97;;;18.30;99.90;;;;;;5055502;28;20295;-70
2021/07/08 06:06:34;;;;;;;4.57;3.03;;;18.30;99.90;;;;;;5049427;28;20646;-69
2021/07/08 06:09:00;;;;;;;3.90;3.23;;;18.30;99.90;;;;;;5034988;28;20192;-70
2021/07/08 06:11:26;;;;;;;4.37;3.17;;;18.40;99.90;;;;;;5035298;28;20175;-69
2021/07/08 06:13:52;;;;;;;3.93;3.40;;;18.40;99.90;;;;;;5035337;28;20177;-68
2021/07/08 06:16:17;;;;;;;5.40;4.50;;;18.40;99.90;;;;;;5047662;28;20446;-69
2021/07/08 06:18:43;;;;;;;6.53;4.50;;;18.50;99.90;;;;;;5054712;28;20301;-69
2021/07/08 06:21:13;;;;;;;5.27;4.40;;;18.50;99.90;;;;;;5055275;28;20172;-69
2021/07/08 06:23:39;;;;;;;4.60;4.17;;;18.50;99.90;;;;;;5055265;28;20528;-68
2021/07/08 06:26:05;;;;;;;6.43;5.20;;;18.60;99.90;;;;;;5044368;28;20417;-70
2021/07/08 06:28:30;;;;;;;4.63;4.30;;;18.60;99.90;;;;;;5034652;28;20183;-69
2021/07/08 06:30:56;;;;;;;3.90;3.60;;;18.70;99.90;;;;;;5035023;28;20209;-69
2021/07/08 06:33:22;;;;;;;5.30;4.50;;;18.70;99.90;;;;;;5034996;28;20338;-68
2021/07/08 06:35:48;;;;;;;4.63;4.23;;;18.80;99.90;;;;;;5042767;28;20189;-69
2021/07/08 06:38:14;;;;;;;3.90;3.60;;;18.90;99.90;;;;;;5054578;28;20211;-69
2021/07/08 06:40:39;;;;;;;4.57;4.17;;;18.90;99.90;;;;;;5054850;28;20420;-69
2021/07/08 06:43:05;;;;;;;3.83;3.50;;;19.00;99.90;;;;;;5054805;28;20185;-69
2021/07/08 06:45:35;;;;;;;4.37;3.60;;;19.10;99.90;;;;;;5048892;28;20194;-70
2021/07/08 06:48:03;;;;;;;3.60;3.30;;;19.20;99.90;;;;;;5034397;28;20261;-70
2021/07/08 06:50:31;;;;;;;7.77;3.73;;;19.30;99.90;;;;;;5033223;28;20460;-69
2021/07/08 06:52:56;;;;;;;5.50;3.40;;;19.30;99.90;;;;;;5034738;28;20488;-69
2021/07/08 06:55:22;;;;;;;4.97;3.10;;;19.30;99.90;;;;;;5038690;28;20455;-69
2021/07/08 06:57:50;;;;;;;5.23;3.40;;;19.40;99.90;;;;;;5054710;28;20189;-71
2021/07/08 07:00:28;;;;;;;3.13;2.93;;;19.40;99.90;;;;;;5054688;28;20582;-70
2021/07/08 07:02:55;;;;;;;4.53;3.33;;;19.40;99.90;;;;;;5054555;28;20542;-70
2021/07/08 07:05:22;;;;;;;3.83;2.90;;;19.40;99.90;;;;;;5037414;28;20452;-69
2021/07/08 07:07:48;;;;;;;4.77;3.93;;;19.40;99.90;;;;;;5034296;28;20416;-70
2021/07/08 07:10:15;;;;;;;3.10;2.80;;;19.40;99.90;;;;;;5034686;28;20449;-69
2021/07/08 07:12:46;;;;;;;4.23;3.83;;;19.30;99.90;;;;;;5034565;28;20462;-69
2021/07/08 07:15:14;;;;;;;4.60;4.20;;;19.30;99.90;;;;;;5049317;28;20759;-69
2021/07/08 07:17:40;;;;;;;5.17;3.90;;;19.30;99.90;;;;;;5053705;28;20381;-69
2021/07/08 07:20:07;;;;;;;2.83;2.73;;;19.30;99.90;;;;;;5054174;28;20794;-69
2021/07/08 07:22:34;;;;;;;3.90;3.60;;;19.30;99.90;;;;;;5038537;28;20188;-70
2021/07/08 07:25:00;;;;;;;4.23;3.93;;;19.30;99.90;;;;;;5034151;28;20422;-70
2021/07/08 07:27:25;;;;;;;3.57;3.37;;;19.20;99.90;;;;;;5033919;28;20448;-69
2021/07/08 07:29:51;;;;;;;4.80;3.90;;;19.20;99.90;;;;;;5033981;28;20449;-69
2021/07/08 07:32:17;;;;;;;3.50;3.20;;;19.20;99.90;;;;;;5045904;28;20599;-70
2021/07/08 07:34:42;;;;;;;5.10;3.37;;;19.20;99.90;;;;;;5053892;28;20180;-70
2021/07/08 07:37:08;;;;;;;3.97;3.67;;;19.20;99.90;;;;;;5053606;28;20182;-70
2021/07/08 07:39:34;;;;;;;4.27;3.70;;;19.30;99.90;;;;;;5049938;28;20200;-69
2021/07/08 07:41:59;;;;;;;4.20;3.30;;;19.30;99.90;;;;;;5033989;28;20172;-69
2021/07/08 07:44:25;;;;;;;15.80;11.20;;;19.40;99.90;;;;;;5033959;28;20202;-70
2021/07/08 07:46:51;;;;;;;12.13;5.00;;;19.40;99.90;;;;;;5033672;28;20172;-69
2021/07/08 07:49:16;;;;;;;5.53;5.07;;;19.50;99.90;;;;;;5033106;28;20285;-70
2021/07/08 07:51:42;;;;;;;4.87;4.03;;;19.60;99.90;;;;;;5053347;28;20169;-70
2021/07/08 07:54:08;;;;;;;4.27;3.70;;;19.70;99.90;;;;;;5053590;28;20198;-70
2021/07/08 07:56:33;;;;;;;3.13;2.83;;;19.80;99.90;;;;;;5053543;28;20578;-69
2021/07/08 07:58:59;;;;;;;3.73;3.30;;;19.90;99.90;;;;;;5041766;28;20292;-70
2021/07/08 08:01:25;;;;;;;4.23;3.83;;;20.00;99.90;;;;;;5033614;28;20184;-70
2021/07/08 08:03:52;;;;;;;4.17;3.23;;;20.10;99.90;;;;;;5033420;28;20181;-70
2021/07/08 08:09:03;;;;;;;3.57;3.23;;;20.30;99.90;;;;;;5043815;28;20425;-70
2021/07/08 08:11:29;;;;;;;3.60;3.23;;;20.40;99.90;;;;;;5052904;28;20390;-70
2021/07/08 08:13:55;;;;;;;3.00;2.70;;;20.40;99.90;;;;;;5052708;28;20408;-70
2021/07/08 08:16:21;;;;;;;3.27;3.07;;;20.40;99.90;;;;;;5053202;28;20276;-70
2021/07/08 08:18:47;;;;;;;5.50;4.00;;;20.40;99.90;;;;;;5044106;28;20456;-70
2021/07/08 08:21:12;;;;;;;3.87;2.80;;;20.40;99.90;;;;;;5033454;28;20265;-70
2021/07/08 08:23:39;;;;;;;3.67;3.37;;;20.40;99.90;;;;;;5033099;28;20340;-69
2021/07/08 08:26:05;;;;;;;6.27;3.47;;;20.40;99.90;;;;;;5032217;28;20212;-70
2021/07/08 08:28:31;;;;;;;4.27;3.20;;;20.30;99.90;;;;;;5037757;28;20865;-70
2021/07/08 08:30:56;;;;;;;3.10;2.80;;;20.30;99.90;;;;;;5053047;28;20166;-70
2021/07/08 08:33:23;;;;;;;2.97;2.77;;;20.30;99.90;;;;;;5053151;28;20379;-70
2021/07/08 08:35:48;;;;;;;3.53;3.23;;;20.40;99.90;;;;;;5053255;28;20223;-70
2021/07/08 08:38:14;;;;;;;2.93;2.73;;;20.50;99.90;;;;;;5050751;28;20415;-70
2021/07/08 08:40:40;;;;;;;3.87;3.57;;;20.60;99.90;;;;;;5033115;28;20266;-70
2021/07/08 08:43:05;;;;;;;2.90;2.70;;;20.90;99.90;;;;;;5033019;28;20324;-70
2021/07/08 08:45:31;;;;;;;2.73;2.53;;;21.00;99.90;;;;;;5033054;28;20687;-70
2021/07/08 08:48:05;;;;;;;4.90;3.40;;;21.20;99.90;;;;;;5035001;28;20231;-70
2021/07/08 08:50:51;;;;;;;3.40;3.10;;;21.40;99.90;;;;;;5052787;28;20550;-70
2021/07/08 08:53:18;;;;;;;3.20;2.80;;;21.70;99.90;;;;;;5052901;28;20920;-70
2021/07/08 08:55:45;;;;;;;3.50;3.20;;;21.90;99.90;;;;;;5052974;28;20379;-69
2021/07/08 08:58:13;;;;;;;3.50;2.40;;;22.10;99.90;;;;;;5035257;28;20433;-70
2021/07/08 09:00:46;;;;;;;4.93;2.80;;;22.20;99.90;;;;;;5033229;28;20929;-69
2021/07/08 09:03:23;;;;;;;2.40;2.30;;;22.40;99.90;;;;;;5033064;28;20417;-70
2021/07/08 09:05:58;;;;;;;3.03;2.83;;;22.60;99.90;;;;;;5033016;28;20448;-69
2021/07/08 09:08:25;;;;;;;3.30;3.00;;;23.10;99.90;;;;;;5048295;28;20408;-69
2021/07/08 09:11:04;;;;;;;2.93;2.73;;;23.30;99.90;;;;;;5052757;28;20820;-69
2021/07/08 09:14:06;;;;;;;2.77;2.53;;;23.40;99.90;;;;;;5052662;28;20478;-70
2021/07/08 09:16:39;;;;;;;2.70;2.50;;;23.50;99.90;;;;;;5050484;28;20401;-68
2021/07/08 09:19:12;;;;;;;2.70;2.50;;;23.50;99.90;;;;;;5032338;28;20436;-71
2021/07/08 09:21:45;;;;;;;3.70;3.03;;;23.60;99.90;;;;;;5032947;28;20495;-71
2021/07/08 09:24:12;;;;;;;2.50;2.30;;;23.70;99.90;;;;;;5032746;28;20419;-69
2021/07/08 09:26:39;;;;;;;3.37;3.07;;;23.70;99.90;;;;;;5037445;28;20411;-71
2021/07/08 09:29:08;;;;;;;2.87;2.67;;;23.60;99.90;;;;;;5055863;28;20413;-70
2021/07/08 09:31:35;;;;;;;2.87;2.53;;;23.50;99.90;;;;;;5056162;28;20375;-70
2021/07/08 09:34:18;;;;;;;3.37;2.50;;;23.60;99.90;;;;;;5056265;28;20423;-69
2021/07/08 09:36:47;;;;;;;3.73;3.43;;;23.60;99.90;;;;;;5054530;28;20493;-69
2021/07/08 09:39:13;;;;;;;2.77;2.57;;;23.80;99.90;;;;;;5035761;28;20429;-69
2021/07/08 09:41:50;;;;;;;3.10;2.80;;;23.90;99.90;;;;;;5036085;28;20803;-69
2021/07/08 09:44:24;;;;;;;3.17;2.97;;;23.90;99.90;;;;;;5036002;28;20456;-70
2021/07/08 09:46:51;;;;;;;3.20;3.00;;;23.90;99.90;;;;;;5036845;28;20415;-69
2021/07/08 09:49:17;;;;;;;2.80;2.60;;;24.00;99.90;;;;;;5055548;28;20467;-69
2021/07/08 09:51:44;;;;;;;3.73;2.83;;;24.00;99.90;;;;;;5055773;28;20881;-69
2021/07/08 09:54:14;;;;;;;3.37;3.07;;;24.00;99.90;;;;;;5055847;28;20466;-69
2021/07/08 09:56:45;;;;;;;3.50;2.80;;;23.90;99.90;;;;;;5044664;28;20407;-68
2021/07/08 09:59:16;;;;;;;2.80;2.60;;;23.90;99.90;;;;;;5035171;28;20461;-69
2021/07/08 10:01:44;;;;;;;3.23;3.00;;;24.00;99.90;;;;;;5044014;28;20468;-69
2021/07/08 10:04:10;;;;;;;4.53;2.67;;;24.10;99.90;;;;;;5055561;28;20447;-69
2021/07/08 10:06:37;;;;;;;2.37;2.27;;;24.30;99.90;;;;;;5055620;28;20396;-69
2021/07/08 10:09:04;;;;;;;3.37;3.07;;;24.40;99.90;;;;;;5055091;28;20841;-69
2021/07/08 10:11:30;;;;;;;2.87;2.67;;;24.50;99.90;;;;;;5048950;28;20432;-69
2021/07/08 10:13:59;;;;;;;2.97;2.70;;;24.60;99.90;;;;;;5035642;28;20934;-70
2021/07/08 10:16:27;;;;;;;2.80;2.60;;;24.60;99.90;;;;;;5035415;28;20178;-71
2021/07/08 10:19:04;;;;;;;3.50;3.20;;;24.60;99.90;;;;;;5035055;28;20768;-70
2021/07/08 10:21:31;;;;;;;3.70;2.70;;;24.60;99.90;;;;;;5053246;28;20757;-70
2021/07/08 10:23:58;;;;;;;2.93;2.70;;;24.60;99.90;;;;;;5055309;28;20539;-68
2021/07/08 10:26:23;;;;;;;2.90;2.43;;;24.50;99.90;;;;;;5055307;28;20483;-69
2021/07/08 10:28:50;;;;;;;3.50;3.20;;;24.40;99.90;;;;;;5054736;28;20477;-68
2021/07/08 10:31:20;;;;;;;2.47;2.30;;;24.40;99.90;;;;;;5039970;28;20185;-68
2021/07/08 10:34:09;;;;;;;3.43;2.60;;;24.40;99.90;;;;;;5035235;28;20764;-70
2021/07/08 10:36:35;;;;;;;2.43;2.23;;;24.40;99.90;;;;;;5033940;28;20398;-68
2021/07/08 10:39:08;;;;;;;2.33;2.13;;;24.50;99.90;;;;;;5043457;28;20513;-68
2021/07/08 10:41:33;;;;;;;3.50;3.00;;;24.60;99.90;;;;;;5054954;28;20386;-68
2021/07/08 10:43:59;;;;;;;3.43;3.13;;;24.70;99.90;;;;;;5054772;28;20400;-70
2021/07/08 10:46:36;;;;;;;2.43;2.33;;;24.80;99.90;;;;;;5054751;28;20193;-69
2021/07/08 10:49:14;;;;;;;2.83;2.63;;;24.90;99.90;;;;;;5044812;28;20548;-69
2021/07/08 10:51:42;;;;;;;3.97;2.70;;;24.80;99.90;;;;;;5034608;28;20417;-69
2021/07/08 10:54:28;;;;;;;3.10;2.27;;;24.70;99.90;;;;;;5033456;28;20502;-69
2021/07/08 10:56:56;;;;;;;1.93;1.83;;;24.80;99.90;;;;;;5034561;28;20836;-69
2021/07/08 10:59:21;;;;;;;2.00;1.90;;;24.80;99.90;;;;;;5044064;28;20436;-69
2021/07/08 11:01:50;;;;;;;2.23;2.03;;;24.70;99.90;;;;;;5053223;28;20408;-69
2021/07/08 11:04:36;;;;;;;1.63;1.53;;;24.80;99.90;;;;;;5054234;28;20269;-69
2021/07/08 11:07:19;;;;;;;2.70;2.33;;;24.80;99.90;;;;;;5048301;28;20879;-69
2021/07/08 11:10:03;;;;;;;3.30;2.97;;;24.70;99.90;;;;;;5034154;28;20516;-69
2021/07/08 11:12:34;;;;;;;5.30;2.50;;;24.60;99.90;;;;;;5034436;28;20383;-69
2021/07/08 11:15:01;;;;;;;6.17;5.57;;;24.60;99.90;;;;;;5034328;28;20910;-69
2021/07/08 11:17:41;;;;;;;3.10;2.77;;;24.40;99.90;;;;;;5042605;28;21214;-70
2021/07/08 11:20:32;;;;;;;3.20;2.90;;;24.20;99.90;;;;;;5054059;28;20510;-70
2021/07/08 11:23:37;;;;;;;2.20;1.90;;;24.10;99.90;;;;;;5033913;28;20502;-71
2021/07/08 11:26:03;;;;;;;3.67;2.30;;;24.10;99.90;;;;;;5034046;28;20459;-70
2021/07/08 11:28:31;;;;;;;2.50;2.13;;;24.10;99.90;;;;;;5033565;28;20768;-69
2021/07/08 11:31:01;;;;;;;2.37;2.20;;;24.10;99.90;;;;;;5035121;28;20166;-71
2021/07/08 11:33:28;;;;;;;2.37;2.20;;;24.00;99.90;;;;;;5053868;28;20396;-71
2021/07/08 11:35:59;;;;;;;2.67;2.23;;;24.00;99.90;;;;;;5053918;28;20383;-70
2021/07/08 11:38:26;;;;;;;2.10;2.00;;;24.00;99.90;;;;;;5053447;28;20494;-69
2021/07/08 11:40:53;;;;;;;6.43;2.37;;;23.90;99.90;;;;;;5053801;28;20401;-69
2021/07/08 11:43:33;;;;;;;1.83;1.73;;;23.80;99.90;;;;;;5034363;28;20947;-70
2021/07/08 11:46:17;;;;;;;2.10;2.00;;;23.60;99.90;;;;;;5033735;28;20514;-70
2021/07/08 11:48:45;;;;;;;2.80;2.60;;;23.50;99.90;;;;;;5032544;28;20393;-70
2021/07/08 11:51:28;;;;;;;2.00;1.80;;;23.40;99.90;;;;;;5047952;28;20798;-71
2021/07/08 11:53:54;;;;;;;3.07;2.80;;;23.40;99.90;;;;;;5053485;28;20418;-70
2021/07/08 11:56:21;;;;;;;5.57;2.40;;;23.40;99.90;;;;;;5053207;28;20750;-71
2021/07/08 11:58:47;;;;;;;2.10;1.90;;;23.30;99.90;;;;;;5052026;28;20241;-70
2021/07/08 12:01:16;;;;;;;3.93;2.97;;;23.20;99.90;;;;;;5050428;28;20744;-71
2021/07/08 12:03:44;;;;;;;2.77;2.57;;;23.20;99.90;;;;;;5053513;28;20410;-70
2021/07/08 12:06:22;;;;;;;3.03;2.37;;;23.20;99.90;;;;;;5051960;28;20996;-70
2021/07/08 12:08:54;;;;;;;2.53;2.33;;;23.30;99.90;;;;;;5052947;28;20952;-70
2021/07/08 12:11:39;;;;;;;2.73;1.70;;;23.30;99.90;;;;;;5037318;28;20506;-70
2021/07/08 12:14:12;;;;;;;2.50;2.30;;;23.40;99.90;;;;;;5033472;28;20926;-71
2021/07/08 12:16:43;;;;;;;2.40;2.20;;;23.50;99.90;;;;;;5033548;28;20382;-70
2021/07/08 12:19:22;;;;;;;3.20;2.30;;;23.70;99.90;;;;;;5033831;28;20792;-71
2021/07/08 12:21:50;;;;;;;2.53;2.33;;;23.80;99.90;;;;;;5044013;28;20389;-71
2021/07/08 12:24:28;;;;;;;3.13;2.83;;;23.90;99.90;;;;;;5053139;28;20891;-70
2021/07/08 12:26:59;;;;;;;2.90;2.63;;;23.90;99.90;;;;;;5035410;28;20877;-70
2021/07/08 12:29:26;;;;;;;3.27;2.97;;;24.00;99.90;;;;;;5032890;28;20765;-71
2021/07/08 12:32:07;;;;;;;2.67;2.43;;;24.10;99.90;;;;;;5033182;28;20415;-69
2021/07/08 12:34:44;;;;;;;2.27;2.17;;;24.20;99.90;;;;;;5033670;28;20379;-70
2021/07/08 12:37:13;;;;;;;1.43;1.27;;;24.00;99.90;;;;;;5036627;28;20386;-69
2021/07/08 12:39:41;;;;;;;1.40;1.33;;;23.90;99.90;;;;;;5052952;28;20933;-71
2021/07/08 12:42:27;;;;;;;1.70;1.60;;;23.70;99.90;;;;;;5052937;28;20398;-71
2021/07/08 12:44:58;;;;;;;1.50;1.50;;;23.50;99.90;;;;;;5052901;28;20509;-71
2021/07/08 12:47:24;;;;;;;2.67;2.13;;;23.40;99.90;;;;;;5052569;28;20404;-70
2021/07/08 12:49:52;;;;;;;4.47;2.13;;;23.30;99.90;;;;;;5052757;28;20411;-71
2021/07/08 12:52:20;;;;;;;3.07;1.50;;;23.20;99.90;;;;;;5052846;28;20828;-72